This is the latest recevied weather packets stored in our database for station/object OE3MHU-12. If no packets are shown the sender has not sent any weather packets the latest 10 day(s).
| Time | Temp. | Humidity | Pressure | Rain* | Wind** | Luminosity | Snow |
|---|---|---|---|---|---|---|---|
| 1788324185 | 11.11° C | 85% | 1020.2 hPa | 0 mm | - | - | - |
| 1788322380 | 11.67° C | 85% | 1020.2 hPa | 0 mm | - | - | - |
| 1788320580 | 11.67° C | 85% | 1020.3 hPa | 0 mm | - | - | - |
| 1788318780 | 11.67° C | 84% | 1020.3 hPa | 0 mm | - | - | - |
| 1788316981 | 11.67° C | 84% | 1020.3 hPa | 0 mm | - | - | - |
| 1788313381 | 11.67° C | 84% | 1020.3 hPa | 0 mm | - | - | - |
| 1788311581 | 11.67° C | 83% | 1020.4 hPa | 0 mm | - | - | - |
| 1788309781 | 11.67° C | 83% | 1020.4 hPa | 0 mm | - | - | - |
| 1788307981 | 11.67° C | 82% | 1020.3 hPa | 0 mm | - | - | - |
| 1788306181 | 12.22° C | 81% | 1020.4 hPa | 0 mm | - | - | - |
| 1788304381 | 12.22° C | 80% | 1020.4 hPa | 0 mm | - | - | - |
| 1788302581 | 12.78° C | 79% | 1020.6 hPa | 0 mm | - | - | - |
| 1788300783 | 12.78° C | 79% | 1020.6 hPa | 0 mm | - | - | - |
| 1788298981 | 12.78° C | 79% | 1020.6 hPa | 0 mm | - | - | - |
| 1788297182 | 13.33° C | 77% | 1020.4 hPa | 0 mm | - | - | - |
| 1788295382 | 13.89° C | 76% | 1020.3 hPa | 0 mm | - | - | - |
| 1788291782 | 15.56° C | 72% | 1020 hPa | 0 mm | - | - | - |
| 1788289982 | 16.67° C | 69% | 1019.8 hPa | 0 mm | - | - | - |
| 1788288182 | 17.78° C | 66% | 1019.5 hPa | 0 mm | - | - | - |
| 1788286382 | 19.44° C | 61% | 1019.1 hPa | 0 mm | - | - | - |
| 1788282782 | 22.78° C | 51% | 1018.6 hPa | 0 mm | - | - | - |
| 1788280983 | 23.33° C | 49% | 1018.5 hPa | 0 mm | - | - | - |
| 1788279183 | 23.89° C | 47% | 1018.6 hPa | 0 mm | - | - | - |
| 1788277383 | 24.44° C | 48% | 1018.6 hPa | 0 mm | - | - | - |
| 1788275583 | 25° C | 47% | 1018.5 hPa | 0 mm | - | - | - |
* Rain latest hour (hover to see other rain measurements)
** Current wind speed in m/s (hover to see current wind gust speed)